Time;durP1;ratioP1;P1;durP2;ratioP2;P2;SDS_P1;SDS_P2;PMS_P1;PMS_P2;Temp;Humidity;BMP_temperature;BMP_pressure;BME280_temperature;BME280_humidity;BME280_pressure;Samples;Min_cycle;Max_cycle;Signal;HPM_P1;HPM_P2
2023/10/01 00:00:08;;;;;;;7.28;6.57;;;19.60;99.90;;;;;;5185789;28;20374;-78
2023/10/01 00:02:41;;;;;;;12.65;6.57;;;19.60;99.90;;;;;;5202206;28;20034;-76
2023/10/01 00:05:12;;;;;;;9.05;6.45;;;19.60;99.90;;;;;;5186103;28;20037;-77
2023/10/01 00:07:43;;;;;;;6.90;6.15;;;19.70;99.90;;;;;;5185886;28;20022;-75
2023/10/01 00:10:14;;;;;;;7.53;6.07;;;19.50;99.90;;;;;;5187024;28;20045;-75
2023/10/01 00:12:47;;;;;;;8.98;5.72;;;19.50;99.90;;;;;;5186727;28;20025;-76
2023/10/01 00:15:21;;;;;;;8.52;6.35;;;19.50;99.90;;;;;;5187018;28;20115;-76
2023/10/01 00:17:53;;;;;;;11.07;6.10;;;19.60;99.90;;;;;;5187172;28;20025;-76
2023/10/01 00:20:25;;;;;;;9.82;6.07;;;19.50;99.90;;;;;;5186971;28;20026;-77
2023/10/01 00:23:00;;;;;;;9.32;6.32;;;19.50;99.90;;;;;;5186828;28;20842;-77
2023/10/01 00:25:35;;;;;;;9.90;5.97;;;19.60;99.90;;;;;;5202039;28;20058;-76
2023/10/01 00:28:07;;;;;;;10.20;6.05;;;19.60;99.90;;;;;;5202126;28;20022;-76
2023/10/01 00:30:38;;;;;;;7.38;6.60;;;19.50;99.90;;;;;;5186804;28;20363;-76
2023/10/01 00:33:13;;;;;;;11.65;6.20;;;19.60;99.90;;;;;;5186350;28;20080;-77
2023/10/01 00:35:44;;;;;;;10.00;5.95;;;19.60;99.90;;;;;;5186742;28;20566;-76
2023/10/01 00:38:16;;;;;;;7.22;6.13;;;19.40;99.90;;;;;;5185264;28;20117;-77
2023/10/01 00:40:49;;;;;;;7.10;5.28;;;19.50;99.90;;;;;;5186291;28;20053;-77
2023/10/01 00:43:29;;;;;;;7.85;4.90;;;19.50;99.90;;;;;;5185935;28;20057;-77
2023/10/01 00:46:00;;;;;;;6.28;4.88;;;19.40;99.90;;;;;;5186088;28;20109;-78
2023/10/01 00:48:32;;;;;;;7.85;4.90;;;19.40;99.90;;;;;;5185794;28;20018;-76
2023/10/01 00:51:04;;;;;;;7.05;5.00;;;19.40;99.90;;;;;;5185881;28;20072;-77
2023/10/01 00:53:36;;;;;;;7.70;5.50;;;19.50;99.90;;;;;;5185938;28;20030;-76
2023/10/01 00:56:08;;;;;;;6.78;5.30;;;19.40;99.90;;;;;;5184303;28;20449;-76
2023/10/01 00:58:39;;;;;;;6.93;5.03;;;19.30;99.90;;;;;;5184648;28;20065;-77
2023/10/01 01:01:12;;;;;;;9.23;5.45;;;19.40;99.90;;;;;;5185999;28;20105;-77
2023/10/01 01:03:43;;;;;;;11.98;5.95;;;19.30;99.90;;;;;;5186097;28;20018;-76
2023/10/01 01:06:23;;;;;;;8.73;6.13;;;19.20;99.90;;;;;;5186326;28;20026;-76
2023/10/01 01:08:54;;;;;;;6.80;6.05;;;19.20;99.90;;;;;;5185889;28;20044;-76
2023/10/01 01:11:26;;;;;;;8.70;6.70;;;18.90;99.90;;;;;;5185982;28;20508;-76
2023/10/01 01:13:57;;;;;;;8.40;6.40;;;19.00;99.90;;;;;;5185040;28;20141;-77
2023/10/01 01:16:28;;;;;;;8.57;6.55;;;19.00;99.90;;;;;;5185926;28;20041;-77
2023/10/01 01:19:00;;;;;;;12.45;6.30;;;19.00;99.90;;;;;;5185780;28;20398;-77
2023/10/01 01:21:31;;;;;;;10.73;6.22;;;18.90;99.90;;;;;;5185827;28;20032;-76
2023/10/01 01:24:03;;;;;;;13.63;6.80;;;19.00;99.90;;;;;;5185903;28;20029;-75
2023/10/01 01:26:37;;;;;;;12.27;6.88;;;19.10;99.90;;;;;;5185590;28;20042;-76
2023/10/01 01:29:18;;;;;;;8.60;6.15;;;19.00;99.90;;;;;;5201119;28;20025;-76
2023/10/01 01:32:02;;;;;;;11.93;6.88;;;19.10;99.90;;;;;;5200956;28;20022;-76
2023/10/01 01:34:37;;;;;;;7.72;6.35;;;19.10;99.90;;;;;;5185651;28;20025;-76
2023/10/01 01:37:08;;;;;;;10.68;6.32;;;19.10;99.90;;;;;;5200946;28;20046;-76
2023/10/01 01:39:49;;;;;;;10.00;6.05;;;19.30;99.90;;;;;;5185402;28;20026;-77
2023/10/01 01:42:21;;;;;;;10.65;6.30;;;19.20;99.90;;;;;;5200872;28;20022;-76
2023/10/01 01:47:42;;;;;;;10.00;7.65;;;19.10;99.90;;;;;;5185763;28;20113;-78
2023/10/01 01:50:21;;;;;;;11.10;7.20;;;19.20;99.90;;;;;;5185477;28;20022;-77
2023/10/01 01:52:52;;;;;;;11.45;7.40;;;19.20;99.90;;;;;;5185614;28;20026;-76
2023/10/01 01:55:27;;;;;;;10.75;8.50;;;19.10;99.90;;;;;;5185843;28;20093;-76
2023/10/01 01:58:08;;;;;;;12.90;7.68;;;19.10;99.90;;;;;;5180399;28;20058;-76
2023/10/01 02:01:00;;;;;;;14.70;8.10;;;19.10;99.90;;;;;;5165569;28;20045;-76
2023/10/01 02:03:32;;;;;;;10.18;9.07;;;19.10;99.90;;;;;;5167207;28;20026;-77
2023/10/01 02:06:07;;;;;;;13.15;8.20;;;19.10;99.90;;;;;;5184342;28;20478;-77
2023/10/01 02:11:23;;;;;;;12.43;7.90;;;19.40;99.90;;;;;;5169448;28;20046;-77
2023/10/01 02:13:54;;;;;;;15.00;7.95;;;19.20;99.90;;;;;;5169189;28;20026;-76
2023/10/01 02:19:11;;;;;;;15.55;9.15;;;19.30;99.90;;;;;;5168824;28;20037;-76
2023/10/01 02:21:43;;;;;;;14.07;9.93;;;18.90;99.90;;;;;;5168984;28;20023;-77
2023/10/01 02:24:22;;;;;;;12.85;10.75;;;18.90;99.90;;;;;;5169185;28;20022;-77
2023/10/01 02:26:59;;;;;;;13.80;11.23;;;19.10;99.90;;;;;;5168770;28;20026;-76
2023/10/01 02:29:33;;;;;;;14.48;11.18;;;19.20;99.90;;;;;;5169107;28;20029;-76
2023/10/01 02:32:17;;;;;;;15.95;12.15;;;19.00;99.90;;;;;;5184246;28;20034;-76
2023/10/01 02:34:48;;;;;;;14.50;10.43;;;19.20;99.90;;;;;;5183399;28;20026;-76
2023/10/01 02:37:29;;;;;;;14.18;10.45;;;19.30;99.90;;;;;;5168381;28;20042;-76
2023/10/01 02:40:00;;;;;;;12.73;10.52;;;19.20;99.90;;;;;;5168370;28;20058;-76
2023/10/01 02:42:32;;;;;;;16.50;10.13;;;19.20;99.90;;;;;;5183601;28;20034;-76
2023/10/01 02:45:30;;;;;;;12.90;9.75;;;19.30;99.90;;;;;;5168305;28;20025;-77
2023/10/01 02:48:13;;;;;;;20.13;10.82;;;19.40;99.90;;;;;;5167977;28;20109;-76
2023/10/01 02:50:54;;;;;;;13.68;9.20;;;19.30;99.90;;;;;;5167400;28;20049;-76
2023/10/01 02:53:25;;;;;;;14.32;10.07;;;19.20;99.90;;;;;;5183211;28;20027;-77
2023/10/01 02:56:02;;;;;;;15.88;9.60;;;19.30;99.90;;;;;;5182770;28;20034;-76
2023/10/01 02:58:33;;;;;;;15.43;9.05;;;19.30;99.90;;;;;;5204461;28;20080;-76
2023/10/01 03:01:13;;;;;;;17.55;9.95;;;19.40;99.90;;;;;;5191259;28;20112;-76
2023/10/01 03:03:44;;;;;;;13.18;10.13;;;19.40;99.90;;;;;;5209164;28;20029;-76
2023/10/01 03:06:15;;;;;;;17.67;10.10;;;19.50;99.90;;;;;;5208811;28;20032;-77
2023/10/01 03:11:22;;;;;;;11.98;10.07;;;19.30;99.90;;;;;;5208381;28;20025;-77
2023/10/01 03:13:54;;;;;;;15.20;11.27;;;19.50;99.90;;;;;;5190856;28;20108;-77
2023/10/01 03:16:42;;;;;;;17.50;12.18;;;19.50;99.90;;;;;;5190871;28;20378;-77
2023/10/01 03:19:19;;;;;;;19.33;11.20;;;19.30;99.90;;;;;;5207255;28;20028;-75
2023/10/01 03:24:45;;;;;;;14.83;10.67;;;19.40;99.90;;;;;;5208324;28;20030;-77
2023/10/01 03:27:27;;;;;;;14.70;11.80;;;19.50;99.90;;;;;;5208191;28;20394;-78
2023/10/01 03:30:00;;;;;;;17.20;12.55;;;19.40;99.90;;;;;;5207936;28;20032;-77
2023/10/01 03:32:33;;;;;;;19.88;14.73;;;19.30;99.90;;;;;;5190205;28;20033;-77
2023/10/01 03:35:07;;;;;;;18.27;12.80;;;19.30;99.90;;;;;;5207911;28;20021;-75
2023/10/01 03:37:39;;;;;;;24.02;14.07;;;19.30;99.90;;;;;;5207664;28;20030;-76
2023/10/01 03:40:21;;;;;;;20.70;14.18;;;19.30;99.90;;;;;;5189925;28;20029;-77
2023/10/01 03:42:52;;;;;;;19.13;13.25;;;19.20;99.90;;;;;;5207723;28;20653;-77
2023/10/01 03:48:06;;;;;;;24.08;14.18;;;19.20;99.90;;;;;;5207665;28;20033;-76
2023/10/01 03:50:45;;;;;;;17.30;13.52;;;19.20;99.90;;;;;;5207629;28;20025;-77
2023/10/01 03:53:18;;;;;;;20.08;12.85;;;19.30;99.90;;;;;;5189842;28;20503;-77
2023/10/01 03:55:54;;;;;;;15.63;13.23;;;19.20;99.90;;;;;;5188911;28;20041;-76
2023/10/01 03:58:26;;;;;;;22.92;13.23;;;19.20;99.90;;;;;;5206811;28;20048;-77
2023/10/01 04:01:09;;;;;;;19.52;13.43;;;19.30;99.90;;;;;;5206882;28;20030;-77
2023/10/01 04:03:42;;;;;;;15.02;13.40;;;19.30;99.90;;;;;;5189598;28;20029;-77
2023/10/01 04:06:14;;;;;;;18.90;12.77;;;19.30;99.90;;;;;;5189713;28;20473;-77
2023/10/01 04:08:45;;;;;;;16.60;13.70;;;19.30;99.90;;;;;;5207698;28;20029;-76
2023/10/01 04:11:18;;;;;;;20.20;13.77;;;19.20;99.90;;;;;;5207400;28;20022;-76
2023/10/01 04:14:07;;;;;;;17.98;12.75;;;19.20;99.90;;;;;;5207252;28;20028;-76
2023/10/01 04:16:46;;;;;;;15.82;13.38;;;19.20;99.90;;;;;;5199689;28;20172;-77
2023/10/01 04:19:20;;;;;;;16.77;12.95;;;19.40;99.90;;;;;;5228022;28;20029;-77
2023/10/01 04:21:51;;;;;;;16.25;13.20;;;19.40;99.90;;;;;;5209706;28;20028;-76
2023/10/01 04:24:22;;;;;;;15.63;12.38;;;19.30;99.90;;;;;;5227274;28;20029;-76
2023/10/01 04:26:54;;;;;;;16.65;11.35;;;19.30;99.90;;;;;;5226415;28;20033;-76
2023/10/01 04:29:44;;;;;;;20.25;12.00;;;19.30;99.90;;;;;;5227196;28;20013;-77
2023/10/01 04:32:16;;;;;;;15.05;12.57;;;19.40;99.90;;;;;;5227296;28;20469;-76
2023/10/01 04:34:49;;;;;;;19.60;12.23;;;19.30;99.90;;;;;;5227167;28;20024;-77
2023/10/01 04:37:36;;;;;;;15.55;11.77;;;19.40;99.90;;;;;;5227068;28;20084;-76
2023/10/01 04:40:31;;;;;;;15.48;12.07;;;19.30;99.90;;;;;;5226987;28;20028;-76
2023/10/01 04:43:08;;;;;;;14.35;11.55;;;19.30;99.90;;;;;;5227113;28;20163;-76
2023/10/01 04:45:40;;;;;;;16.90;11.38;;;19.30;99.90;;;;;;5209571;28;20025;-77
2023/10/01 04:48:33;;;;;;;13.73;11.52;;;19.30;99.90;;;;;;5227224;28;20023;-77
2023/10/01 04:51:07;;;;;;;18.73;12.13;;;19.40;99.90;;;;;;5227637;28;20017;-77
2023/10/01 04:53:39;;;;;;;13.90;12.25;;;19.20;99.90;;;;;;5209671;28;20124;-76
2023/10/01 04:56:11;;;;;;;14.77;11.40;;;19.30;99.90;;;;;;5208987;28;20072;-76
2023/10/01 04:58:41;;;;;;;13.75;11.77;;;19.30;99.90;;;;;;5227203;28;20111;-77
2023/10/01 05:01:12;;;;;;;12.80;11.45;;;19.30;99.90;;;;;;5226833;28;20025;-76
2023/10/01 05:03:44;;;;;;;21.20;11.80;;;19.40;99.90;;;;;;5227207;28;20406;-76
2023/10/01 05:06:22;;;;;;;15.18;11.93;;;19.20;99.90;;;;;;5226015;28;20035;-77
2023/10/01 05:08:56;;;;;;;15.75;11.50;;;19.30;99.90;;;;;;5227233;28;20025;-77
2023/10/01 05:11:33;;;;;;;15.05;11.27;;;19.10;99.90;;;;;;5209320;28;20025;-76
2023/10/01 05:14:04;;;;;;;18.08;11.50;;;19.10;99.90;;;;;;5209133;28;20059;-77
2023/10/01 05:16:38;;;;;;;15.55;11.45;;;19.20;99.90;;;;;;5226307;28;20492;-76
2023/10/01 05:19:13;;;;;;;17.15;11.57;;;19.20;99.90;;;;;;5226811;28;20028;-77
2023/10/01 05:21:48;;;;;;;14.50;11.07;;;19.20;99.90;;;;;;5226150;28;20139;-76
2023/10/01 05:24:35;;;;;;;16.25;11.82;;;19.20;99.90;;;;;;5226351;28;20086;-76
2023/10/01 05:27:09;;;;;;;17.58;11.65;;;19.10;99.90;;;;;;5208198;28;20098;-77
2023/10/01 05:29:42;;;;;;;15.98;11.80;;;19.20;99.90;;;;;;5226721;28;20029;-77
2023/10/01 05:32:13;;;;;;;15.77;11.75;;;19.00;99.90;;;;;;5226395;28;20021;-76
2023/10/01 05:34:47;;;;;;;16.17;12.02;;;19.00;99.90;;;;;;5208783;28;20357;-77
2023/10/01 05:37:24;;;;;;;14.07;10.98;;;18.70;99.90;;;;;;5208752;28;20047;-76
2023/10/01 05:39:55;;;;;;;18.50;11.60;;;19.00;99.90;;;;;;5230466;28;20017;-77
2023/10/01 05:42:28;;;;;;;17.85;11.52;;;18.90;99.90;;;;;;5212507;28;20024;-76
2023/10/01 05:44:59;;;;;;;19.00;11.45;;;18.90;99.90;;;;;;5230179;28;20104;-77
2023/10/01 05:47:45;;;;;;;17.67;11.52;;;18.90;99.90;;;;;;5230348;28;20434;-76
2023/10/01 05:50:18;;;;;;;13.48;11.57;;;18.80;99.90;;;;;;5212089;28;20087;-76
2023/10/01 05:52:50;;;;;;;12.93;11.43;;;18.80;99.90;;;;;;5212739;28;20079;-76
2023/10/01 05:55:23;;;;;;;16.75;11.30;;;18.90;99.90;;;;;;5212468;28;20025;-76
2023/10/01 05:58:12;;;;;;;18.90;11.77;;;18.90;99.90;;;;;;5212467;28;20053;-76
2023/10/01 06:00:56;;;;;;;17.02;10.57;;;19.00;99.90;;;;;;5230401;28;20078;-76
2023/10/01 06:03:30;;;;;;;18.42;11.07;;;18.90;99.90;;;;;;5230610;28;20062;-76
2023/10/01 06:06:08;;;;;;;13.80;10.73;;;19.00;99.90;;;;;;5230332;28;20021;-76
2023/10/01 06:08:49;;;;;;;16.45;11.00;;;19.10;99.90;;;;;;5212690;28;20048;-77
2023/10/01 06:11:38;;;;;;;20.23;12.05;;;19.00;99.90;;;;;;5230345;28;20476;-76
2023/10/01 06:14:36;;;;;;;16.05;10.52;;;19.10;99.90;;;;;;5212140;28;20506;-76
2023/10/01 06:17:05;;;;;;;15.50;10.70;;;19.10;99.90;;;;;;5227976;28;20137;-75
2023/10/01 06:19:38;;;;;;;14.75;11.45;;;19.10;99.90;;;;;;5229193;28;20104;-76
2023/10/01 06:22:25;;;;;;;18.70;10.57;;;19.10;99.90;;;;;;5212123;28;20090;-76
2023/10/01 06:24:56;;;;;;;12.90;10.43;;;19.20;99.90;;;;;;5230397;28;20044;-76
2023/10/01 06:27:27;;;;;;;18.20;11.50;;;19.30;99.90;;;;;;5211772;28;20033;-78
2023/10/01 06:30:00;;;;;;;16.58;12.10;;;19.40;99.90;;;;;;5230124;28;20028;-77
2023/10/01 06:32:33;;;;;;;14.57;10.98;;;19.50;99.90;;;;;;5230215;28;20067;-75
2023/10/01 06:35:05;;;;;;;16.98;11.60;;;19.50;99.90;;;;;;5230109;28;20025;-77
2023/10/01 06:37:50;;;;;;;14.77;11.82;;;19.50;99.90;;;;;;5211310;28;20427;-77
2023/10/01 06:40:30;;;;;;;18.58;11.32;;;19.50;99.90;;;;;;5212107;28;20032;-77
2023/10/01 06:43:02;;;;;;;17.08;11.30;;;19.20;99.90;;;;;;5229936;28;20025;-76
2023/10/01 07:05:16;;;;;;;13.98;11.40;;;19.30;99.90;;;;;;5308486;27;20390;-79
2023/10/01 07:07:48;;;;;;;16.45;11.18;;;19.40;99.90;;;;;;5308506;28;20038;-79
2023/10/01 07:10:20;;;;;;;14.75;10.60;;;19.50;99.90;;;;;;5308675;28;20821;-79
2023/10/01 07:13:04;;;;;;;22.92;10.38;;;19.60;99.90;;;;;;5308080;27;20679;-79
2023/10/01 07:15:39;;;;;;;23.20;8.00;;;19.20;99.90;;;;;;5308115;27;20102;-79
2023/10/01 07:18:19;;;;;;;14.98;7.38;;;19.00;99.90;;;;;;5308329;28;20039;-79
2023/10/01 07:33:28;;;;;;;15.95;8.73;;;18.90;99.90;;;;;;5309156;27;20450;-79
2023/10/01 07:35:59;;;;;;;17.25;9.88;;;18.90;99.90;;;;;;5308605;27;20114;-79
2023/10/01 07:38:32;;;;;;;20.58;8.70;;;19.10;99.90;;;;;;5308109;27;20107;-80
2023/10/01 07:41:12;;;;;;;15.80;8.70;;;18.80;99.90;;;;;;5308401;28;20034;-79
2023/10/01 07:43:43;;;;;;;13.60;8.05;;;18.90;99.90;;;;;;5308445;28;20141;-80
2023/10/01 07:46:15;;;;;;;15.05;8.70;;;18.90;99.90;;;;;;5289779;28;20526;-80
2023/10/01 07:48:51;;;;;;;15.80;7.97;;;19.00;99.90;;;;;;5308124;28;20186;-79
2023/10/01 07:51:28;;;;;;;15.15;8.77;;;19.00;99.90;;;;;;5308148;28;20026;-79
2023/10/01 07:54:11;;;;;;;17.45;8.85;;;19.10;99.90;;;;;;5288281;28;20027;-79
2023/10/01 07:56:56;;;;;;;14.30;9.70;;;19.10;99.90;;;;;;5286808;28;20497;-79
2023/10/01 08:04:57;;;;;;;16.13;9.30;;;19.30;99.90;;;;;;5182449;28;20041;-77
2023/10/01 08:07:39;;;;;;;16.08;11.40;;;19.30;99.90;;;;;;5182146;28;20015;-76
2023/10/01 08:10:17;;;;;;;15.75;10.15;;;19.20;99.90;;;;;;5183241;28;20045;-77
2023/10/01 08:15:38;;;;;;;18.20;10.98;;;19.50;99.90;;;;;;5182793;28;20026;-77
2023/10/01 08:18:34;;;;;;;20.00;10.32;;;19.70;99.90;;;;;;5182174;28;20393;-77
2023/10/01 08:21:18;;;;;;;16.42;10.68;;;19.60;99.90;;;;;;5182924;28;20062;-78
2023/10/01 08:23:49;;;;;;;20.77;10.70;;;19.70;99.90;;;;;;5182799;28;20482;-77
2023/10/01 08:29:17;;;;;;;;;;;19.70;99.90;;;;;;5175795;28;20037;-79
2023/10/01 08:34:28;;;;;;;22.60;12.15;;;19.80;99.90;;;;;;5171913;28;20034;-77
2023/10/01 08:37:06;;;;;;;21.73;11.40;;;19.90;99.90;;;;;;5172703;28;20122;-78
2023/10/01 08:39:47;;;;;;;20.70;12.45;;;20.00;99.90;;;;;;5175149;28;20084;-78
2023/10/01 08:42:18;;;;;;;21.45;12.07;;;20.00;99.90;;;;;;5179496;28;20061;-77
2023/10/01 08:44:50;;;;;;;19.85;12.73;;;20.10;99.90;;;;;;5175845;28;20064;-77
2023/10/01 08:47:32;;;;;;;21.42;12.32;;;20.10;99.90;;;;;;5174811;28;20102;-77
2023/10/01 08:52:58;;;;;;;22.83;12.05;;;20.20;99.90;;;;;;5179097;28;20421;-77
2023/10/01 08:55:40;;;;;;;20.10;11.68;;;20.30;99.90;;;;;;5174939;28;20065;-78
2023/10/01 08:58:41;;;;;;;20.55;12.77;;;20.30;99.90;;;;;;5177066;28;20129;-77
2023/10/01 09:01:15;;;;;;;19.40;11.20;;;20.30;99.90;;;;;;5170665;28;20042;-79
2023/10/01 09:03:48;;;;;;;19.95;11.63;;;20.40;99.90;;;;;;5180589;28;20085;-77
2023/10/01 09:06:25;;;;;;;21.83;12.27;;;20.40;99.90;;;;;;5171708;28;20027;-78
2023/10/01 09:08:59;;;;;;;18.67;11.85;;;20.50;99.90;;;;;;5174123;28;20038;-78
2023/10/01 09:11:42;;;;;;;19.30;12.30;;;20.40;99.90;;;;;;5177232;28;20089;-77
2023/10/01 09:14:17;;;;;;;22.38;12.68;;;20.60;99.90;;;;;;5170998;28;20038;-78
2023/10/01 09:16:58;;;;;;;26.83;12.15;;;20.60;99.90;;;;;;5173696;28;20053;-78
2023/10/01 09:19:43;;;;;;;17.60;10.40;;;20.60;99.90;;;;;;5173704;28;20034;-78
2023/10/01 09:22:22;;;;;;;17.65;11.00;;;20.60;99.90;;;;;;5177623;28;20033;-77
2023/10/01 09:24:56;;;;;;;21.58;11.63;;;20.70;99.90;;;;;;5174844;28;20030;-77
2023/10/01 09:27:30;;;;;;;17.92;10.02;;;20.80;99.90;;;;;;5175589;28;20457;-78
2023/10/01 09:33:05;;;;;;;16.40;9.95;;;20.70;99.90;;;;;;5461383;23;20157;-77
2023/10/01 09:36:03;;;;;;;19.73;10.80;;;20.80;99.90;;;;;;5153248;28;20094;-77
2023/10/01 09:38:57;;;;;;;19.77;10.32;;;20.80;99.90;;;;;;5130630;28;20062;-77
2023/10/01 09:41:31;;;;;;;18.15;10.48;;;20.80;99.90;;;;;;5148046;28;20023;-76
2023/10/01 09:44:03;;;;;;;15.10;10.38;;;20.80;99.90;;;;;;5151451;28;20068;-75
2023/10/01 09:46:37;;;;;;;20.20;11.52;;;20.80;99.90;;;;;;5154983;28;20430;-76
2023/10/01 09:49:09;;;;;;;16.35;11.70;;;20.90;99.90;;;;;;5149433;28;20030;-76
2023/10/01 09:51:46;;;;;;;16.15;11.90;;;20.80;99.90;;;;;;5151337;28;20031;-76
2023/10/01 09:54:28;;;;;;;17.67;11.95;;;20.90;99.90;;;;;;5157457;28;20045;-76
2023/10/01 09:57:08;;;;;;;18.77;13.77;;;20.90;99.90;;;;;;5151305;28;20046;-75
2023/10/01 09:59:40;;;;;;;15.52;13.50;;;20.90;99.90;;;;;;5150954;28;20050;-75
2023/10/01 10:02:12;;;;;;;21.92;12.93;;;21.00;99.90;;;;;;5161195;28;20078;-77
2023/10/01 10:04:44;;;;;;;17.30;13.18;;;21.00;99.90;;;;;;5174941;28;20029;-78
2023/10/01 10:07:24;;;;;;;14.13;12.13;;;21.00;99.90;;;;;;5169771;28;20030;-77
2023/10/01 10:09:57;;;;;;;20.50;12.80;;;21.00;99.90;;;;;;5170059;28;20113;-77
2023/10/01 10:12:34;;;;;;;21.20;13.90;;;20.80;99.90;;;;;;5173032;28;20117;-76
2023/10/01 10:15:05;;;;;;;18.38;11.82;;;21.00;99.90;;;;;;5172903;28;20042;-76
2023/10/01 10:17:56;;;;;;;14.35;11.30;;;20.90;99.90;;;;;;5154185;28;20030;-76
2023/10/01 10:20:27;;;;;;;22.10;11.20;;;21.00;99.90;;;;;;5173396;28;20030;-76
2023/10/01 10:23:16;;;;;;;15.82;9.20;;;21.00;99.90;;;;;;5175421;28;20806;-76
2023/10/01 10:25:47;;;;;;;21.15;10.85;;;21.00;99.90;;;;;;5176021;28;20037;-77
2023/10/01 10:28:25;;;;;;;15.20;8.60;;;21.00;99.90;;;;;;5173951;28;20125;-76
2023/10/01 10:31:29;;;;;;;14.00;9.75;;;21.00;99.90;;;;;;5174080;28;20144;-76
2023/10/01 10:34:24;;;;;;;17.20;10.55;;;21.10;99.90;;;;;;5171990;28;20046;-76
2023/10/01 10:36:57;;;;;;;14.35;9.60;;;21.00;99.90;;;;;;5170662;28;20056;-76
2023/10/01 10:39:49;;;;;;;15.40;10.73;;;21.10;99.90;;;;;;5175375;28;20035;-76
2023/10/01 10:42:31;;;;;;;21.95;13.88;;;21.00;99.90;;;;;;5151780;28;20036;-77
2023/10/01 10:45:20;;;;;;;17.92;13.95;;;21.10;99.90;;;;;;5170003;28;20028;-76
2023/10/01 10:48:01;;;;;;;18.05;13.82;;;21.00;99.90;;;;;;5177791;28;20038;-76
2023/10/01 10:50:45;;;;;;;18.15;13.90;;;21.10;99.90;;;;;;5174591;28;20410;-75
2023/10/01 10:53:25;;;;;;;15.98;14.45;;;21.10;99.90;;;;;;5164945;28;20393;-76
2023/10/01 10:56:06;;;;;;;17.92;14.27;;;21.00;99.90;;;;;;5175108;28;20023;-76
2023/10/01 10:58:41;;;;;;;21.42;12.77;;;21.00;99.90;;;;;;5174794;28;20064;-76
2023/10/01 11:01:18;;;;;;;13.98;11.80;;;21.00;99.90;;;;;;5177334;28;20062;-77
2023/10/01 11:03:57;;;;;;;14.00;9.80;;;21.10;99.90;;;;;;5170037;28;20033;-76
2023/10/01 11:06:39;;;;;;;15.65;11.13;;;21.10;99.90;;;;;;5177386;28;20038;-75
2023/10/01 11:09:30;;;;;;;15.13;9.85;;;21.20;99.90;;;;;;5172309;28;20060;-77
2023/10/01 11:12:05;;;;;;;15.65;9.43;;;21.10;99.90;;;;;;5176151;28;20405;-76
2023/10/01 11:14:37;;;;;;;20.17;9.85;;;21.10;99.90;;;;;;5180433;28;20024;-76
2023/10/01 11:17:08;;;;;;;13.88;9.50;;;21.10;99.90;;;;;;5168801;28;20030;-77
2023/10/01 11:19:39;;;;;;;17.25;8.68;;;21.20;99.90;;;;;;5171825;28;20033;-76
2023/10/01 11:22:10;;;;;;;13.15;9.55;;;21.20;99.90;;;;;;5172712;28;20037;-76
2023/10/01 11:24:42;;;;;;;16.20;9.93;;;21.30;99.90;;;;;;5174208;28;20026;-76
2023/10/01 11:30:12;;;;;;;19.17;9.48;;;21.30;99.90;;;;;;5172829;28;20509;-77
2023/10/01 11:33:01;;;;;;;13.40;10.15;;;21.30;99.90;;;;;;5173518;28;20074;-76
2023/10/01 11:35:36;;;;;;;17.70;11.35;;;21.40;99.90;;;;;;5174137;28;20113;-76
2023/10/01 11:38:19;;;;;;;14.85;13.45;;;21.40;99.90;;;;;;5169195;28;20065;-77
2023/10/01 11:43:58;;;;;;;;;;;21.50;99.90;;;;;;5171925;28;20093;-76
2023/10/01 11:49:36;;;;;;;23.90;20.85;;;21.50;99.90;;;;;;5172464;28;20387;-75
2023/10/01 11:52:21;;;;;;;;;;;21.50;99.90;;;;;;5171775;28;20027;-76
2023/10/01 11:54:54;;;;;;;16.88;14.88;;;21.60;99.90;;;;;;5175339;28;19905;-76
2023/10/01 11:57:31;;;;;;;16.77;12.80;;;21.50;99.90;;;;;;5170769;28;20042;-76
2023/10/01 12:00:03;;;;;;;17.83;15.10;;;21.60;99.90;;;;;;5173970;28;20022;-76
2023/10/01 12:02:43;;;;;;;17.60;15.82;;;21.50;99.90;;;;;;5153836;28;20131;-75
2023/10/01 12:05:16;;;;;;;;;;;21.60;99.90;;;;;;5171306;28;20034;-76
2023/10/01 12:07:47;;;;;;;16.25;14.55;;;21.60;99.90;;;;;;5175277;28;20394;-76
2023/10/01 12:10:35;;;;;;;18.65;16.33;;;21.60;99.90;;;;;;5176030;28;20034;-76
2023/10/01 12:13:10;;;;;;;19.30;15.95;;;21.70;99.90;;;;;;5172193;28;20108;-77
2023/10/01 12:15:51;;;;;;;21.83;16.65;;;21.70;99.90;;;;;;5174529;28;20035;-77
2023/10/01 12:18:36;;;;;;;23.33;16.85;;;21.70;99.90;;;;;;5176203;28;20124;-76
2023/10/01 12:21:24;;;;;;;16.20;14.65;;;21.80;99.90;;;;;;5173588;28;20031;-76
2023/10/01 12:23:55;;;;;;;16.77;12.07;;;21.80;99.90;;;;;;5180693;28;20061;-76
2023/10/01 12:29:13;;;;;;;20.10;10.35;;;21.80;99.90;;;;;;5176407;28;20037;-76
2023/10/01 12:31:48;;;;;;;16.98;8.82;;;21.90;99.90;;;;;;5174406;28;20050;-77
2023/10/01 12:34:20;;;;;;;11.20;8.93;;;21.90;99.90;;;;;;5177270;28;20026;-76
2023/10/01 12:36:51;;;;;;;17.30;9.05;;;21.90;99.90;;;;;;5164564;28;20028;-75
2023/10/01 12:39:27;;;;;;;11.90;7.60;;;21.90;99.90;;;;;;5175401;28;20034;-76
2023/10/01 12:41:58;;;;;;;18.83;8.90;;;22.00;99.90;;;;;;5181271;28;20050;-76
2023/10/01 12:44:30;;;;;;;15.35;7.95;;;22.00;99.90;;;;;;5172364;28;20107;-75
2023/10/01 12:47:03;;;;;;;17.55;8.27;;;22.00;99.90;;;;;;5177063;28;20824;-75
2023/10/01 12:49:42;;;;;;;20.85;8.07;;;22.00;99.90;;;;;;5179739;28;20390;-76
2023/10/01 12:52:16;;;;;;;14.63;8.13;;;22.00;99.90;;;;;;5171461;28;20819;-76
2023/10/01 12:54:47;;;;;;;13.07;8.68;;;22.00;99.90;;;;;;5175788;28;20026;-75
2023/10/01 12:57:18;;;;;;;21.35;8.88;;;22.00;99.90;;;;;;5172744;28;20053;-76
2023/10/01 13:02:45;;;;;;;15.50;8.88;;;22.00;99.90;;;;;;5175024;28;20050;-76
2023/10/01 13:05:17;;;;;;;14.82;8.77;;;22.00;99.90;;;;;;5174788;28;20709;-76
2023/10/01 13:07:51;;;;;;;15.60;8.65;;;22.00;99.90;;;;;;5176291;28;20057;-76
2023/10/01 13:10:37;;;;;;;16.75;8.68;;;22.10;99.90;;;;;;5153396;28;20470;-76
2023/10/01 13:13:08;;;;;;;15.95;9.68;;;22.00;99.90;;;;;;5172906;28;20058;-76
2023/10/01 13:15:43;;;;;;;16.77;9.55;;;22.00;99.90;;;;;;5175064;28;20791;-77
2023/10/01 13:18:22;;;;;;;21.98;10.70;;;22.00;99.90;;;;;;5173086;28;20513;-76
2023/10/01 13:23:25;;;;;;;18.17;11.27;;;22.00;99.90;;;;;;5174863;28;20038;-76
2023/10/01 13:26:05;;;;;;;22.23;11.77;;;22.00;99.90;;;;;;5182749;28;20026;-76
2023/10/01 13:28:49;;;;;;;18.00;10.55;;;22.00;99.90;;;;;;5175061;28;20026;-77
2023/10/01 14:10:26;;;;;;;12.23;10.03;;;21.70;99.90;;;;;;5179321;28;20030;-77
2023/10/01 14:12:57;;;;;;;18.20;10.18;;;21.70;99.90;;;;;;5174386;28;20486;-76
2023/10/01 14:15:29;;;;;;;20.08;10.43;;;21.70;99.90;;;;;;5170950;28;20048;-76
2023/10/01 14:18:08;;;;;;;16.50;10.27;;;21.70;99.90;;;;;;5167866;28;20034;-77
2023/10/01 14:20:44;;;;;;;18.30;11.10;;;21.60;99.90;;;;;;5171220;28;20169;-76
2023/10/01 14:23:39;;;;;;;17.58;10.65;;;21.60;99.90;;;;;;5166809;28;20398;-77
2023/10/01 14:26:13;;;;;;;18.23;11.30;;;21.50;99.90;;;;;;5169559;28;20056;-77
2023/10/01 14:28:46;;;;;;;17.55;11.30;;;21.60;99.90;;;;;;5169135;28;20057;-77
2023/10/01 14:31:41;;;;;;;19.70;11.63;;;21.60;99.90;;;;;;5176657;28;20037;-76
2023/10/01 14:34:09;;;;;;;20.27;11.77;;;21.50;99.90;;;;;;5176098;28;20039;-76
2023/10/01 14:36:39;;;;;;;14.93;10.55;;;21.60;99.90;;;;;;5173320;28;20026;-76
2023/10/01 14:39:14;;;;;;;17.92;11.07;;;21.60;99.90;;;;;;5169135;28;20489;-76
2023/10/01 14:41:45;;;;;;;18.25;10.77;;;21.60;99.90;;;;;;5176620;28;20046;-77
2023/10/01 14:44:24;;;;;;;30.38;12.50;;;21.60;99.90;;;;;;5175668;28;20377;-76
2023/10/01 14:46:57;;;;;;;15.73;10.73;;;21.60;99.90;;;;;;5172716;28;20030;-76
2023/10/01 14:49:28;;;;;;;26.70;11.68;;;21.70;99.90;;;;;;5176972;28;20034;-76
2023/10/01 14:52:00;;;;;;;17.15;12.10;;;21.60;99.90;;;;;;5176989;28;20034;-76
2023/10/01 14:54:36;;;;;;;16.60;11.75;;;21.60;99.90;;;;;;5171027;28;20026;-76
2023/10/01 14:57:08;;;;;;;21.13;11.77;;;21.50;99.90;;;;;;5176592;28;20022;-76
2023/10/01 14:59:39;;;;;;;24.38;14.35;;;21.50;99.90;;;;;;5175511;28;20105;-76
2023/10/01 15:02:15;;;;;;;28.42;19.95;;;21.40;99.90;;;;;;5157416;28;20686;-76
2023/10/01 15:04:46;;;;;;;26.30;14.73;;;21.40;99.90;;;;;;5173451;28;20030;-77
2023/10/01 15:07:19;;;;;;;23.98;13.27;;;21.40;99.90;;;;;;5177114;28;20452;-77
2023/10/01 15:10:04;;;;;;;27.52;13.65;;;21.50;99.90;;;;;;5172795;28;20073;-76
2023/10/01 15:12:35;;;;;;;23.73;14.82;;;21.50;99.90;;;;;;5173964;28;20065;-78
2023/10/01 15:15:18;;;;;;;25.23;17.63;;;21.30;99.90;;;;;;5178461;28;20104;-77
2023/10/01 15:17:54;;;;;;;24.02;13.43;;;21.20;99.90;;;;;;5165277;28;20038;-77
2023/10/01 15:20:30;;;;;;;25.13;11.48;;;21.20;99.90;;;;;;5154521;28;20042;-77
2023/10/01 15:23:15;;;;;;;26.33;12.85;;;21.30;99.90;;;;;;5170634;28;20046;-78